sensor_id;sensor_type;location;lat;lon;timestamp;pressure;altitude;pressure_sealevel;temperature;humidity
7754;BME280;3921;42.266;23.122;2023-06-26T00:00:48;95336.97;;;22.03;89.19
7754;BME280;3921;42.266;23.122;2023-06-26T00:03:15;95166.13;;;21.13;89.91
7754;BME280;3921;42.266;23.122;2023-06-26T00:05:43;94849.91;;;19.11;89.68
7754;BME280;3921;42.266;23.122;2023-06-26T00:08:10;95216.00;;;21.20;89.90
7754;BME280;3921;42.266;23.122;2023-06-26T00:10:37;95295.91;;;21.72;90.27
7754;BME280;3921;42.266;23.122;2023-06-26T00:13:04;95178.81;;;21.14;90.29
7754;BME280;3921;42.266;23.122;2023-06-26T00:15:31;95469.22;;;22.67;90.25
7754;BME280;3921;42.266;23.122;2023-06-26T00:17:58;95465.75;;;22.68;89.77
7754;BME280;3921;42.266;23.122;2023-06-26T00:20:25;94993.19;;;20.01;89.86
7754;BME280;3921;42.266;23.122;2023-06-26T00:22:53;95065.06;;;20.42;90.07
7754;BME280;3921;42.266;23.122;2023-06-26T00:25:24;95181.47;;;21.13;90.13
7754;BME280;3921;42.266;23.122;2023-06-26T00:27:54;95196.88;;;21.27;90.38
7754;BME280;3921;42.266;23.122;2023-06-26T00:30:21;95318.00;;;21.91;90.55
7754;BME280;3921;42.266;23.122;2023-06-26T00:32:48;95307.66;;;21.92;90.34
7754;BME280;3921;42.266;23.122;2023-06-26T00:35:15;94987.56;;;19.95;90.42
7754;BME280;3921;42.266;23.122;2023-06-26T00:43:11;94692.25;;;18.04;90.10
7754;BME280;3921;42.266;23.122;2023-06-26T00:45:38;95308.13;;;21.67;90.14
7754;BME280;3921;42.266;23.122;2023-06-26T00:48:06;95041.28;;;19.92;89.98
7754;BME280;3921;42.266;23.122;2023-06-26T00:50:33;95144.63;;;20.51;90.01
7754;BME280;3921;42.266;23.122;2023-06-26T00:53:00;95162.94;;;20.76;90.22
7754;BME280;3921;42.266;23.122;2023-06-26T00:55:27;95055.28;;;20.17;90.21
7754;BME280;3921;42.266;23.122;2023-06-26T00:58:06;95460.78;;;22.49;90.53
7754;BME280;3921;42.266;23.122;2023-06-26T01:00:34;95054.34;;;20.03;89.81
7754;BME280;3921;42.266;23.122;2023-06-26T01:03:01;95198.03;;;21.06;90.50
7754;BME280;3921;42.266;23.122;2023-06-26T01:05:29;95420.31;;;22.40;90.84
7754;BME280;3921;42.266;23.122;2023-06-26T01:07:57;95411.22;;;22.34;90.91
7754;BME280;3921;42.266;23.122;2023-06-26T01:10:24;95403.53;;;22.34;90.65
7754;BME280;3921;42.266;23.122;2023-06-26T01:12:53;95288.75;;;21.63;90.76
7754;BME280;3921;42.266;23.122;2023-06-26T01:15:20;94725.25;;;17.87;90.41
7754;BME280;3921;42.266;23.122;2023-06-26T01:17:49;94734.88;;;18.16;90.34
7754;BME280;3921;42.266;23.122;2023-06-26T01:20:18;95255.06;;;21.39;90.64
7754;BME280;3921;42.266;23.122;2023-06-26T01:22:58;94786.06;;;18.45;90.32
7754;BME280;3921;42.266;23.122;2023-06-26T01:25:37;95062.50;;;20.09;90.34
7754;BME280;3921;42.266;23.122;2023-06-26T01:28:09;95197.78;;;20.77;90.20
7754;BME280;3921;42.266;23.122;2023-06-26T01:30:42;95121.13;;;20.61;90.15
7754;BME280;3921;42.266;23.122;2023-06-26T01:33:10;95162.00;;;20.94;89.99
7754;BME280;3921;42.266;23.122;2023-06-26T01:35:37;95090.91;;;20.36;89.82
7754;BME280;3921;42.266;23.122;2023-06-26T01:38:12;95259.19;;;21.42;90.04
7754;BME280;3921;42.266;23.122;2023-06-26T01:40:40;95112.28;;;20.51;89.78
7754;BME280;3921;42.266;23.122;2023-06-26T01:43:17;94955.06;;;19.65;89.67
7754;BME280;3921;42.266;23.122;2023-06-26T01:45:46;95389.78;;;22.37;89.73
7754;BME280;3921;42.266;23.122;2023-06-26T01:48:16;95271.56;;;21.50;89.49
7754;BME280;3921;42.266;23.122;2023-06-26T01:50:48;95073.22;;;20.16;89.45
7754;BME280;3921;42.266;23.122;2023-06-26T01:53:18;95264.97;;;21.45;89.93
7754;BME280;3921;42.266;23.122;2023-06-26T01:55:55;95273.63;;;21.43;89.82
7754;BME280;3921;42.266;23.122;2023-06-26T01:58:27;95325.00;;;22.03;89.66
7754;BME280;3921;42.266;23.122;2023-06-26T02:00:55;95088.28;;;20.38;89.50
7754;BME280;3921;42.266;23.122;2023-06-26T02:03:23;95387.94;;;22.39;90.17
7754;BME280;3921;42.266;23.122;2023-06-26T02:05:50;95228.59;;;21.07;89.79
7754;BME280;3921;42.266;23.122;2023-06-26T02:08:18;95061.47;;;20.47;89.74
7754;BME280;3921;42.266;23.122;2023-06-26T02:10:48;95371.66;;;22.40;89.90
7754;BME280;3921;42.266;23.122;2023-06-26T02:13:15;95007.06;;;20.13;89.43
7754;BME280;3921;42.266;23.122;2023-06-26T02:15:43;94736.84;;;18.46;89.31
7754;BME280;3921;42.266;23.122;2023-06-26T02:18:10;95250.28;;;21.49;89.40
7754;BME280;3921;42.266;23.122;2023-06-26T02:20:37;94621.31;;;17.63;88.50
7754;BME280;3921;42.266;23.122;2023-06-26T02:23:04;95254.84;;;21.60;88.55
7754;BME280;3921;42.266;23.122;2023-06-26T02:25:31;95129.34;;;20.84;89.01
7754;BME280;3921;42.266;23.122;2023-06-26T02:27:59;95101.34;;;20.49;88.56
7754;BME280;3921;42.266;23.122;2023-06-26T02:30:26;95073.34;;;20.48;88.42
7754;BME280;3921;42.266;23.122;2023-06-26T02:32:54;95369.91;;;22.09;88.15
7754;BME280;3921;42.266;23.122;2023-06-26T02:35:21;95382.91;;;22.37;88.03
7754;BME280;3921;42.266;23.122;2023-06-26T02:37:50;95164.59;;;20.93;88.49
7754;BME280;3921;42.266;23.122;2023-06-26T02:40:18;94762.81;;;18.52;88.13
7754;BME280;3921;42.266;23.122;2023-06-26T02:42:49;94902.75;;;19.41;87.71
7754;BME280;3921;42.266;23.122;2023-06-26T02:45:19;94991.97;;;19.75;87.75
7754;BME280;3921;42.266;23.122;2023-06-26T02:47:53;95164.53;;;20.94;88.05
7754;BME280;3921;42.266;23.122;2023-06-26T02:50:20;95373.00;;;22.31;87.86
7754;BME280;3921;42.266;23.122;2023-06-26T02:52:47;94971.47;;;19.77;87.62
7754;BME280;3921;42.266;23.122;2023-06-26T02:55:17;95248.56;;;21.34;87.63
7754;BME280;3921;42.266;23.122;2023-06-26T02:57:44;95156.66;;;20.49;87.94
7754;BME280;3921;42.266;23.122;2023-06-26T03:00:13;94810.44;;;18.31;87.78
7754;BME280;3921;42.266;23.122;2023-06-26T03:02:40;95125.41;;;20.61;87.73
7754;BME280;3921;42.266;23.122;2023-06-26T03:05:08;95093.78;;;20.13;88.28
7754;BME280;3921;42.266;23.122;2023-06-26T03:07:36;95012.78;;;19.66;88.15
7754;BME280;3921;42.266;23.122;2023-06-26T03:10:04;95006.94;;;19.81;88.50
7754;BME280;3921;42.266;23.122;2023-06-26T03:12:31;95450.41;;;22.19;88.50
7754;BME280;3921;42.266;23.122;2023-06-26T03:14:58;94745.81;;;18.18;88.02
7754;BME280;3921;42.266;23.122;2023-06-26T03:17:25;95337.47;;;21.60;88.47
7754;BME280;3921;42.266;23.122;2023-06-26T03:19:52;95256.81;;;21.04;88.10
7754;BME280;3921;42.266;23.122;2023-06-26T03:22:20;95171.28;;;20.62;88.42
7754;BME280;3921;42.266;23.122;2023-06-26T03:24:47;94859.63;;;18.86;88.62
7754;BME280;3921;42.266;23.122;2023-06-26T03:27:14;95337.34;;;21.79;88.93
7754;BME280;3921;42.266;23.122;2023-06-26T03:29:41;95018.63;;;19.51;88.64
7754;BME280;3921;42.266;23.122;2023-06-26T03:32:08;95185.03;;;20.60;88.52
7754;BME280;3921;42.266;23.122;2023-06-26T03:34:35;95183.28;;;20.78;89.03
7754;BME280;3921;42.266;23.122;2023-06-26T03:37:04;95161.59;;;20.34;88.77
7754;BME280;3921;42.266;23.122;2023-06-26T03:39:33;95028.38;;;19.60;89.16
7754;BME280;3921;42.266;23.122;2023-06-26T03:42:02;95183.59;;;20.54;89.32
7754;BME280;3921;42.266;23.122;2023-06-26T03:44:29;95011.72;;;19.53;89.20
7754;BME280;3921;42.266;23.122;2023-06-26T03:46:57;95190.34;;;20.73;89.54
7754;BME280;3921;42.266;23.122;2023-06-26T03:49:23;95273.19;;;21.17;89.42
7754;BME280;3921;42.266;23.122;2023-06-26T03:51:53;94709.19;;;17.67;89.42
7754;BME280;3921;42.266;23.122;2023-06-26T03:54:20;94979.16;;;19.06;89.65
7754;BME280;3921;42.266;23.122;2023-06-26T03:56:51;94804.41;;;18.15;89.59
7754;BME280;3921;42.266;23.122;2023-06-26T03:59:18;95271.69;;;21.13;89.87
7754;BME280;3921;42.266;23.122;2023-06-26T04:01:45;95254.53;;;21.00;90.11
7754;BME280;3921;42.266;23.122;2023-06-26T04:04:12;94831.06;;;18.25;89.61
7754;BME280;3921;42.266;23.122;2023-06-26T04:06:39;94826.56;;;18.13;89.43
7754;BME280;3921;42.266;23.122;2023-06-26T04:09:06;94785.72;;;18.16;89.30
7754;BME280;3921;42.266;23.122;2023-06-26T04:11:33;95262.69;;;21.06;89.49
7754;BME280;3921;42.266;23.122;2023-06-26T04:14:01;95008.00;;;19.60;89.13
7754;BME280;3921;42.266;23.122;2023-06-26T04:16:29;94926.84;;;18.81;89.46
7754;BME280;3921;42.266;23.122;2023-06-26T04:18:56;95203.94;;;20.73;89.24
7754;BME280;3921;42.266;23.122;2023-06-26T04:21:23;94861.34;;;18.49;89.30
7754;BME280;3921;42.266;23.122;2023-06-26T04:23:50;95297.03;;;21.18;89.46
7754;BME280;3921;42.266;23.122;2023-06-26T04:26:18;94985.50;;;19.51;89.49
7754;BME280;3921;42.266;23.122;2023-06-26T04:28:45;95005.56;;;19.57;89.57
7754;BME280;3921;42.266;23.122;2023-06-26T04:31:13;95204.34;;;20.81;89.63
7754;BME280;3921;42.266;23.122;2023-06-26T04:33:40;95188.53;;;20.57;89.66
7754;BME280;3921;42.266;23.122;2023-06-26T04:36:07;95177.28;;;20.61;89.43
7754;BME280;3921;42.266;23.122;2023-06-26T04:38:34;95303.13;;;21.48;89.68
7754;BME280;3921;42.266;23.122;2023-06-26T04:41:01;95418.56;;;22.07;89.52
7754;BME280;3921;42.266;23.122;2023-06-26T04:43:29;94697.66;;;17.79;88.55
7754;BME280;3921;42.266;23.122;2023-06-26T04:45:59;95152.06;;;20.55;88.25
7754;BME280;3921;42.266;23.122;2023-06-26T04:48:28;94777.75;;;18.05;88.55
7754;BME280;3921;42.266;23.122;2023-06-26T04:50:56;95233.00;;;21.04;88.78
7754;BME280;3921;42.266;23.122;2023-06-26T04:53:26;95474.81;;;22.26;88.84
7754;BME280;3921;42.266;23.122;2023-06-26T04:55:55;95126.19;;;20.46;88.99
7754;BME280;3921;42.266;23.122;2023-06-26T05:03:35;94837.16;;;18.57;89.03
7754;BME280;3921;42.266;23.122;2023-06-26T05:06:02;95007.25;;;19.75;89.37
7754;BME280;3921;42.266;23.122;2023-06-26T05:11:05;94774.81;;;18.14;88.96
7754;BME280;3921;42.266;23.122;2023-06-26T05:13:33;95299.03;;;21.46;89.34
7754;BME280;3921;42.266;23.122;2023-06-26T05:16:01;94819.47;;;18.20;89.68
7754;BME280;3921;42.266;23.122;2023-06-26T05:18:44;94886.16;;;18.99;90.06
7754;BME280;3921;42.266;23.122;2023-06-26T05:21:12;94777.06;;;18.20;89.84
7754;BME280;3921;42.266;23.122;2023-06-26T05:23:43;94662.03;;;17.43;90.09
7754;BME280;3921;42.266;23.122;2023-06-26T05:26:12;95198.66;;;20.93;91.04
7754;BME280;3921;42.266;23.122;2023-06-26T05:28:40;95293.75;;;21.49;90.90
7754;BME280;3921;42.266;23.122;2023-06-26T05:31:10;94904.25;;;18.93;90.39
7754;BME280;3921;42.266;23.122;2023-06-26T05:33:41;94728.81;;;17.83;90.37
7754;BME280;3921;42.266;23.122;2023-06-26T05:36:12;94785.72;;;18.16;90.49
7754;BME280;3921;42.266;23.122;2023-06-26T05:38:44;94830.06;;;18.47;90.79
7754;BME280;3921;42.266;23.122;2023-06-26T05:41:14;95118.59;;;20.44;91.01
7754;BME280;3921;42.266;23.122;2023-06-26T05:43:52;94819.94;;;18.45;90.50
7754;BME280;3921;42.266;23.122;2023-06-26T05:46:25;95354.53;;;21.60;90.36
7754;BME280;3921;42.266;23.122;2023-06-26T05:48:52;95169.19;;;20.71;90.37
7754;BME280;3921;42.266;23.122;2023-06-26T05:51:21;95016.91;;;19.86;90.50
7754;BME280;3921;42.266;23.122;2023-06-26T05:53:49;95247.34;;;21.24;90.61
7754;BME280;3921;42.266;23.122;2023-06-26T05:56:17;95344.69;;;21.69;90.97
7754;BME280;3921;42.266;23.122;2023-06-26T05:58:46;94825.84;;;18.65;90.27
7754;BME280;3921;42.266;23.122;2023-06-26T06:01:16;95332.97;;;21.81;90.90
7754;BME280;3921;42.266;23.122;2023-06-26T06:04:00;95033.25;;;19.99;90.27
7754;BME280;3921;42.266;23.122;2023-06-26T06:06:59;94833.25;;;18.69;90.32
7754;BME280;3921;42.266;23.122;2023-06-26T06:09:33;94725.53;;;18.17;89.75
7754;BME280;3921;42.266;23.122;2023-06-26T06:12:03;94859.59;;;18.68;88.68
7754;BME280;3921;42.266;23.122;2023-06-26T06:14:33;94943.53;;;19.41;86.64
7754;BME280;3921;42.266;23.122;2023-06-26T06:17:00;94721.50;;;18.13;86.15
7754;BME280;3921;42.266;23.122;2023-06-26T06:19:27;95288.44;;;21.69;86.68
7754;BME280;3921;42.266;23.122;2023-06-26T06:22:05;94757.31;;;18.08;85.26
7754;BME280;3921;42.266;23.122;2023-06-26T06:24:48;95437.31;;;22.57;85.67
7754;BME280;3921;42.266;23.122;2023-06-26T06:27:17;95030.56;;;20.02;83.91
7754;BME280;3921;42.266;23.122;2023-06-26T06:29:44;95427.50;;;22.49;85.13
7754;BME280;3921;42.266;23.122;2023-06-26T06:32:11;94974.25;;;19.72;84.92
7754;BME280;3921;42.266;23.122;2023-06-26T06:34:38;95041.41;;;20.06;84.15
7754;BME280;3921;42.266;23.122;2023-06-26T06:37:06;94891.84;;;19.21;84.31
7754;BME280;3921;42.266;23.122;2023-06-26T06:39:33;95333.34;;;21.91;84.83
7754;BME280;3921;42.266;23.122;2023-06-26T06:42:00;95269.22;;;21.62;85.12
7754;BME280;3921;42.266;23.122;2023-06-26T06:44:27;94785.16;;;18.46;83.32
7754;BME280;3921;42.266;23.122;2023-06-26T06:46:56;95309.94;;;21.65;84.06
7754;BME280;3921;42.266;23.122;2023-06-26T06:49:23;95083.41;;;20.33;83.54
7754;BME280;3921;42.266;23.122;2023-06-26T06:51:52;95431.19;;;22.59;84.73
7754;BME280;3921;42.266;23.122;2023-06-26T06:54:26;95447.41;;;22.60;85.32
7754;BME280;3921;42.266;23.122;2023-06-26T06:56:54;94887.63;;;19.20;85.69
7754;BME280;3921;42.266;23.122;2023-06-26T06:59:21;94856.03;;;18.90;84.79
7754;BME280;3921;42.266;23.122;2023-06-26T07:01:47;95020.44;;;19.83;83.84
7754;BME280;3921;42.266;23.122;2023-06-26T07:04:14;95293.47;;;21.87;82.98
7754;BME280;3921;42.266;23.122;2023-06-26T07:06:41;95122.38;;;20.70;82.47
7754;BME280;3921;42.266;23.122;2023-06-26T07:09:08;95226.06;;;21.23;82.40
7754;BME280;3921;42.266;23.122;2023-06-26T07:11:37;94821.38;;;18.87;82.46
7754;BME280;3921;42.266;23.122;2023-06-26T07:14:04;94826.47;;;18.87;82.38
7754;BME280;3921;42.266;23.122;2023-06-26T07:16:31;94830.38;;;18.94;81.66
7754;BME280;3921;42.266;23.122;2023-06-26T07:18:58;95283.34;;;21.85;83.48
7754;BME280;3921;42.266;23.122;2023-06-26T07:21:25;95133.94;;;20.77;83.53
7754;BME280;3921;42.266;23.122;2023-06-26T07:23:52;94914.31;;;19.65;83.19
7754;BME280;3921;42.266;23.122;2023-06-26T07:26:19;95264.97;;;21.45;83.07
7754;BME280;3921;42.266;23.122;2023-06-26T07:28:49;95210.53;;;21.43;82.99
7754;BME280;3921;42.266;23.122;2023-06-26T07:31:16;94918.34;;;19.52;82.70
7754;BME280;3921;42.266;23.122;2023-06-26T07:33:46;94769.81;;;18.83;82.80
7754;BME280;3921;42.266;23.122;2023-06-26T07:36:14;95184.25;;;21.41;83.70
7754;BME280;3921;42.266;23.122;2023-06-26T07:38:48;94815.16;;;18.93;83.49
7754;BME280;3921;42.266;23.122;2023-06-26T07:41:14;94867.38;;;19.52;84.21
7754;BME280;3921;42.266;23.122;2023-06-26T07:43:42;95167.31;;;21.39;84.23
7754;BME280;3921;42.266;23.122;2023-06-26T07:46:10;94700.34;;;18.47;82.32
7754;BME280;3921;42.266;23.122;2023-06-26T07:48:37;94869.47;;;19.44;82.48
7754;BME280;3921;42.266;23.122;2023-06-26T07:51:04;95225.66;;;21.80;82.64
7754;BME280;3921;42.266;23.122;2023-06-26T07:53:31;94791.97;;;18.99;81.92
7754;BME280;3921;42.266;23.122;2023-06-26T07:55:58;95292.84;;;22.15;82.84
7754;BME280;3921;42.266;23.122;2023-06-26T07:58:25;94693.88;;;18.57;82.10
7754;BME280;3921;42.266;23.122;2023-06-26T08:00:52;94755.94;;;18.89;82.57
7754;BME280;3921;42.266;23.122;2023-06-26T08:03:27;94792.84;;;18.98;83.88
7754;BME280;3921;42.266;23.122;2023-06-26T08:16:26;95284.41;;;22.13;84.27
7754;BME280;3921;42.266;23.122;2023-06-26T08:18:54;95188.28;;;21.45;85.10
7754;BME280;3921;42.266;23.122;2023-06-26T08:21:21;94690.91;;;18.31;85.32
7754;BME280;3921;42.266;23.122;2023-06-26T08:23:48;95220.22;;;21.70;85.24
7754;BME280;3921;42.266;23.122;2023-06-26T08:26:15;95140.22;;;21.36;85.02
7754;BME280;3921;42.266;23.122;2023-06-26T08:28:42;95009.25;;;20.54;85.27
7754;BME280;3921;42.266;23.122;2023-06-26T08:31:09;95019.38;;;20.71;82.35
7754;BME280;3921;42.266;23.122;2023-06-26T08:33:36;95180.84;;;21.72;80.56
7754;BME280;3921;42.266;23.122;2023-06-26T08:36:05;95415.00;;;23.06;81.67
7754;BME280;3921;42.266;23.122;2023-06-26T08:38:32;95177.66;;;21.69;81.42
7754;BME280;3921;42.266;23.122;2023-06-26T08:40:59;94933.94;;;20.13;81.73
7754;BME280;3921;42.266;23.122;2023-06-26T08:43:29;95330.16;;;22.65;80.09
7754;BME280;3921;42.266;23.122;2023-06-26T08:45:56;94880.66;;;19.92;79.10
7754;BME280;3921;42.266;23.122;2023-06-26T08:48:25;95025.31;;;20.87;77.75
7754;BME280;3921;42.266;23.122;2023-06-26T08:50:53;94835.16;;;19.51;78.99
7754;BME280;3921;42.266;23.122;2023-06-26T08:53:29;95435.09;;;23.28;80.05
7754;BME280;3921;42.266;23.122;2023-06-26T08:56:00;95388.56;;;23.05;79.57
7754;BME280;3921;42.266;23.122;2023-06-26T08:58:28;95225.56;;;21.81;79.07
7754;BME280;3921;42.266;23.122;2023-06-26T09:00:56;95058.69;;;21.00;78.48
7754;BME280;3921;42.266;23.122;2023-06-26T09:03:24;95406.06;;;23.13;77.82
7754;BME280;3921;42.266;23.122;2023-06-26T09:05:51;95392.59;;;22.94;77.65
7754;BME280;3921;42.266;23.122;2023-06-26T09:08:19;94818.84;;;19.37;78.46
7754;BME280;3921;42.266;23.122;2023-06-26T09:10:47;95181.75;;;21.87;78.43
7754;BME280;3921;42.266;23.122;2023-06-26T09:13:15;95413.28;;;23.21;79.10
7754;BME280;3921;42.266;23.122;2023-06-26T09:15:43;95397.00;;;23.22;77.97
7754;BME280;3921;42.266;23.122;2023-06-26T09:18:12;95070.63;;;21.31;76.72
7754;BME280;3921;42.266;23.122;2023-06-26T09:20:39;94903.56;;;20.09;76.38
7754;BME280;3921;42.266;23.122;2023-06-26T09:23:06;94700.06;;;19.03;75.97
7754;BME280;3921;42.266;23.122;2023-06-26T09:25:33;95146.69;;;21.89;76.65
7754;BME280;3921;42.266;23.122;2023-06-26T09:28:02;95202.22;;;22.03;77.52
7754;BME280;3921;42.266;23.122;2023-06-26T09:30:32;94994.16;;;20.97;78.14
7754;BME280;3921;42.266;23.122;2023-06-26T09:33:13;94860.13;;;20.10;76.67
7754;BME280;3921;42.266;23.122;2023-06-26T09:35:40;95022.50;;;21.24;77.71
7754;BME280;3921;42.266;23.122;2023-06-26T09:38:07;94811.91;;;19.90;78.12
7754;BME280;3921;42.266;23.122;2023-06-26T09:40:34;95229.22;;;22.39;78.86
7754;BME280;3921;42.266;23.122;2023-06-26T09:43:05;95302.97;;;23.08;78.61
7754;BME280;3921;42.266;23.122;2023-06-26T09:45:33;94792.00;;;19.81;76.76
7754;BME280;3921;42.266;23.122;2023-06-26T09:48:02;94770.97;;;19.44;73.69
7754;BME280;3921;42.266;23.122;2023-06-26T09:50:29;95004.03;;;21.03;75.56
7754;BME280;3921;42.266;23.122;2023-06-26T09:53:07;94708.91;;;19.29;74.47
7754;BME280;3921;42.266;23.122;2023-06-26T09:55:34;94905.97;;;20.43;74.43
7754;BME280;3921;42.266;23.122;2023-06-26T09:58:02;95173.44;;;22.30;75.60
7754;BME280;3921;42.266;23.122;2023-06-26T10:00:31;95412.25;;;23.83;75.25
7754;BME280;3921;42.266;23.122;2023-06-26T10:02:58;94926.97;;;20.80;74.94
7754;BME280;3921;42.266;23.122;2023-06-26T10:05:25;95204.16;;;22.60;73.83
7754;BME280;3921;42.266;23.122;2023-06-26T10:07:54;95086.94;;;21.90;74.93
7754;BME280;3921;42.266;23.122;2023-06-26T10:10:22;94687.53;;;19.48;75.03
7754;BME280;3921;42.266;23.122;2023-06-26T10:12:54;94843.00;;;20.28;74.99
7754;BME280;3921;42.266;23.122;2023-06-26T10:15:24;95029.19;;;21.56;75.42
7754;BME280;3921;42.266;23.122;2023-06-26T10:17:55;94784.13;;;19.85;75.20
7754;BME280;3921;42.266;23.122;2023-06-26T10:20:24;94853.22;;;20.60;75.96
7754;BME280;3921;42.266;23.122;2023-06-26T10:22:52;94997.59;;;21.43;75.74
7754;BME280;3921;42.266;23.122;2023-06-26T10:25:23;95094.09;;;22.15;76.22
7754;BME280;3921;42.266;23.122;2023-06-26T10:27:53;95187.53;;;22.67;76.54
7754;BME280;3921;42.266;23.122;2023-06-26T10:30:23;95042.13;;;21.99;75.39
7754;BME280;3921;42.266;23.122;2023-06-26T10:32:55;94770.31;;;20.51;73.25
7754;BME280;3921;42.266;23.122;2023-06-26T10:35:24;95175.38;;;22.85;73.89
7754;BME280;3921;42.266;23.122;2023-06-26T10:37:51;95249.72;;;23.27;74.28
7754;BME280;3921;42.266;23.122;2023-06-26T10:40:25;94659.50;;;19.95;73.86
7754;BME280;3921;42.266;23.122;2023-06-26T10:43:08;95006.44;;;22.12;72.43
7754;BME280;3921;42.266;23.122;2023-06-26T10:45:35;95256.78;;;23.52;70.80
7754;BME280;3921;42.266;23.122;2023-06-26T10:48:04;95342.22;;;24.10;71.62
7754;BME280;3921;42.266;23.122;2023-06-26T10:50:32;95288.81;;;23.74;72.43
7754;BME280;3921;42.266;23.122;2023-06-26T10:53:15;95383.19;;;24.26;73.15
7754;BME280;3921;42.266;23.122;2023-06-26T10:55:50;95198.72;;;23.09;73.70
7754;BME280;3921;42.266;23.122;2023-06-26T10:58:30;95211.38;;;23.12;73.83
7754;BME280;3921;42.266;23.122;2023-06-26T11:01:25;95373.56;;;24.15;74.47
7754;BME280;3921;42.266;23.122;2023-06-26T11:04:06;95020.19;;;21.95;73.51
7754;BME280;3921;42.266;23.122;2023-06-26T11:06:35;95048.34;;;22.09;73.68
7754;BME280;3921;42.266;23.122;2023-06-26T11:09:10;95310.66;;;23.81;74.35
7754;BME280;3921;42.266;23.122;2023-06-26T11:11:58;95236.91;;;23.13;75.20
7754;BME280;3921;42.266;23.122;2023-06-26T11:14:31;95148.38;;;22.79;75.79
7754;BME280;3921;42.266;23.122;2023-06-26T11:16:59;94876.00;;;21.09;76.35
7754;BME280;3921;42.266;23.122;2023-06-26T11:19:37;95245.41;;;23.42;76.32
7754;BME280;3921;42.266;23.122;2023-06-26T11:22:10;94840.09;;;20.82;75.58
7754;BME280;3921;42.266;23.122;2023-06-26T11:24:41;95125.41;;;22.63;75.98
7754;BME280;3921;42.266;23.122;2023-06-26T11:27:10;95288.63;;;23.48;75.79
7754;BME280;3921;42.266;23.122;2023-06-26T11:29:37;95133.72;;;22.81;75.50
7754;BME280;3921;42.266;23.122;2023-06-26T11:32:06;94926.63;;;21.32;75.27
7754;BME280;3921;42.266;23.122;2023-06-26T11:34:35;95077.56;;;22.35;75.51
7754;BME280;3921;42.266;23.122;2023-06-26T11:37:04;95302.94;;;23.67;76.12
7754;BME280;3921;42.266;23.122;2023-06-26T11:39:32;95389.16;;;24.12;76.20
7754;BME280;3921;42.266;23.122;2023-06-26T11:42:00;94827.09;;;20.71;76.06
7754;BME280;3921;42.266;23.122;2023-06-26T11:44:31;95033.13;;;22.22;77.33
7754;BME280;3921;42.266;23.122;2023-06-26T11:46:58;95070.34;;;22.42;78.43
7754;BME280;3921;42.266;23.122;2023-06-26T11:49:29;95142.59;;;22.75;78.24
7754;BME280;3921;42.266;23.122;2023-06-26T11:51:57;94963.44;;;21.88;76.94
7754;BME280;3921;42.266;23.122;2023-06-26T11:54:25;95240.41;;;23.41;74.62
7754;BME280;3921;42.266;23.122;2023-06-26T11:56:54;94774.78;;;20.48;73.79
7754;BME280;3921;42.266;23.122;2023-06-26T11:59:23;94879.22;;;21.42;74.21
7754;BME280;3921;42.266;23.122;2023-06-26T12:01:51;94794.28;;;21.23;74.22
7754;BME280;3921;42.266;23.122;2023-06-26T12:04:20;95192.47;;;23.70;75.18
7754;BME280;3921;42.266;23.122;2023-06-26T12:06:49;94756.34;;;21.17;75.30
7754;BME280;3921;42.266;23.122;2023-06-26T12:09:19;95289.19;;;24.38;73.73
7754;BME280;3921;42.266;23.122;2023-06-26T12:11:48;95173.84;;;23.80;72.54
7754;BME280;3921;42.266;23.122;2023-06-26T12:14:19;94971.44;;;22.82;71.70
7754;BME280;3921;42.266;23.122;2023-06-26T12:16:46;94817.84;;;21.99;69.95
7754;BME280;3921;42.266;23.122;2023-06-26T12:19:14;95391.75;;;25.47;71.05
7754;BME280;3921;42.266;23.122;2023-06-26T12:21:48;94984.94;;;23.13;70.41
7754;BME280;3921;42.266;23.122;2023-06-26T12:24:21;94720.66;;;21.44;70.32
7754;BME280;3921;42.266;23.122;2023-06-26T12:26:50;95291.00;;;25.15;69.64
7754;BME280;3921;42.266;23.122;2023-06-26T12:29:20;95195.31;;;24.46;67.43
7754;BME280;3921;42.266;23.122;2023-06-26T12:31:50;95336.06;;;25.46;68.00
7754;BME280;3921;42.266;23.122;2023-06-26T12:34:19;95337.41;;;25.52;68.95
7754;BME280;3921;42.266;23.122;2023-06-26T12:36:48;95077.63;;;24.00;67.14
7754;BME280;3921;42.266;23.122;2023-06-26T12:39:17;95257.38;;;25.05;68.25
7754;BME280;3921;42.266;23.122;2023-06-26T12:41:46;95307.66;;;25.73;66.15
7754;BME280;3921;42.266;23.122;2023-06-26T12:44:17;95230.53;;;25.35;67.59
7754;BME280;3921;42.266;23.122;2023-06-26T12:46:46;95200.06;;;25.29;65.49
7754;BME280;3921;42.266;23.122;2023-06-26T12:49:17;94905.06;;;23.46;64.91
7754;BME280;3921;42.266;23.122;2023-06-26T12:51:48;94848.84;;;23.17;63.95
7754;BME280;3921;42.266;23.122;2023-06-26T12:54:15;95358.19;;;26.36;64.40
7754;BME280;3921;42.266;23.122;2023-06-26T12:56:42;94718.84;;;22.41;64.27
7754;BME280;3921;42.266;23.122;2023-06-26T12:59:11;94971.41;;;24.16;64.27
7754;BME280;3921;42.266;23.122;2023-06-26T13:01:39;95271.94;;;25.94;62.81
7754;BME280;3921;42.266;23.122;2023-06-26T13:04:07;94840.22;;;23.31;64.16
7754;BME280;3921;42.266;23.122;2023-06-26T13:06:37;95004.25;;;24.23;64.02
7754;BME280;3921;42.266;23.122;2023-06-26T13:09:07;95367.34;;;26.53;64.34
7754;BME280;3921;42.266;23.122;2023-06-26T13:11:37;94899.44;;;23.66;65.02
7754;BME280;3921;42.266;23.122;2023-06-26T13:14:04;94746.13;;;22.95;63.92
7754;BME280;3921;42.266;23.122;2023-06-26T13:16:33;94987.09;;;24.36;62.65
7754;BME280;3921;42.266;23.122;2023-06-26T13:19:00;95036.47;;;24.66;62.77
7754;BME280;3921;42.266;23.122;2023-06-26T13:21:27;95096.66;;;24.87;63.44
7754;BME280;3921;42.266;23.122;2023-06-26T13:23:55;95023.53;;;24.29;63.68
7754;BME280;3921;42.266;23.122;2023-06-26T13:26:23;95040.41;;;24.33;62.41
7754;BME280;3921;42.266;23.122;2023-06-26T13:28:51;95072.25;;;24.69;62.68
7754;BME280;3921;42.266;23.122;2023-06-26T13:31:18;95209.28;;;25.57;62.73
7754;BME280;3921;42.266;23.122;2023-06-26T13:33:46;95042.06;;;24.47;63.66
7754;BME280;3921;42.266;23.122;2023-06-26T13:36:15;95337.91;;;26.32;62.69
7754;BME280;3921;42.266;23.122;2023-06-26T13:38:42;95185.59;;;25.02;60.77
7754;BME280;3921;42.266;23.122;2023-06-26T13:41:10;95066.09;;;24.58;60.59
7754;BME280;3921;42.266;23.122;2023-06-26T13:43:37;95120.81;;;25.10;61.41